Time;durP1;ratioP1;P1;durP2;ratioP2;P2;SDS_P1;SDS_P2;PMS_P1;PMS_P2;Temp;Humidity;BMP_temperature;BMP_pressure;BME280_temperature;BME280_humidity;BME280_pressure;Samples;Min_cycle;Max_cycle;Signal;HPM_P1;HPM_P2
2023/12/01 00:01:27;;;;;;;26.80;13.65;;;;;;;;;;5968111;23;20055;-86
2023/12/01 00:03:53;;;;;;;24.10;13.15;;;;;;;;;;5977678;23;20024;-85
2023/12/01 00:06:18;;;;;;;26.45;13.65;;;;;;;;;;5999110;23;20380;-85
2023/12/01 00:08:44;;;;;;;24.23;12.45;;;;;;;;;;5976562;23;20469;-86
2023/12/01 00:11:09;;;;;;;25.38;12.82;;;;;;;;;;5975150;23;20024;-85
2023/12/01 00:13:34;;;;;;;29.15;13.25;;;;;;;;;;5975632;23;20485;-85
2023/12/01 00:16:00;;;;;;;26.98;13.55;;;;;;;;;;5975060;23;20024;-86
2023/12/01 00:18:25;;;;;;;27.73;13.55;;;;;;;;;;5953128;23;20028;-85
2023/12/01 00:20:51;;;;;;;29.17;14.27;;;;;;;;;;5999551;23;20020;-86
2023/12/01 00:23:17;;;;;;;32.03;13.57;;;;;;;;;;5976793;23;20023;-86
2023/12/01 00:26:02;;;;;;;29.35;13.80;;;;;;;;;;5994703;23;20090;-85
2023/12/01 00:28:28;;;;;;;28.58;13.88;;;;;;;;;;5941612;24;20020;-86
2023/12/01 00:30:54;;;;;;;28.02;13.30;;;;;;;;;;5971692;24;20522;-85
2023/12/01 00:33:19;;;;;;;28.33;12.85;;;;;;;;;;5947786;24;20020;-85
2023/12/01 00:35:44;;;;;;;28.83;13.65;;;;;;;;;;5924249;24;20065;-86
2023/12/01 00:38:10;;;;;;;30.50;14.23;;;;;;;;;;5924953;24;20031;-86
2023/12/01 00:40:36;;;;;;;28.20;13.52;;;;;;;;;;5970963;24;20047;-86
2023/12/01 00:43:01;;;;;;;28.17;13.50;;;;;;;;;;5970283;23;20024;-85
2023/12/01 00:45:27;;;;;;;28.90;14.35;;;;;;;;;;5925316;24;20020;-85
2023/12/01 00:47:52;;;;;;;27.85;13.63;;;;;;;;;;5948240;24;20037;-86
2023/12/01 00:50:18;;;;;;;29.63;13.60;;;;;;;;;;5971517;24;20020;-87
2023/12/01 00:52:44;;;;;;;27.90;12.55;;;;;;;;;;5970288;23;20020;-86
2023/12/01 00:55:09;;;;;;;25.63;12.43;;;;;;;;;;5973113;24;20568;-86
2023/12/01 00:57:35;;;;;;;24.95;12.18;;;;;;;;;;5948276;24;20498;-86
2023/12/01 01:00:00;;;;;;;26.58;12.65;;;;;;;;;;5926737;24;20080;-86
2023/12/01 01:02:26;;;;;;;24.95;12.32;;;;;;;;;;5926635;24;20016;-85
2023/12/01 01:04:51;;;;;;;25.70;12.15;;;;;;;;;;5985027;23;20021;-85
2023/12/01 01:07:17;;;;;;;23.85;11.68;;;;;;;;;;6069886;23;20013;-86
2023/12/01 01:09:42;;;;;;;23.05;11.88;;;;;;;;;;6067786;23;20014;-85
2023/12/01 01:12:07;;;;;;;24.65;11.20;;;;;;;;;;6067458;23;20018;-86
2023/12/01 01:14:36;;;;;;;21.20;11.10;;;;;;;;;;6092668;23;20018;-87
2023/12/01 01:17:01;;;;;;;19.77;11.00;;;;;;;;;;6115720;23;20021;-85
2023/12/01 01:19:27;;;;;;;20.70;11.43;;;;;;;;;;6069171;23;20637;-87
2023/12/01 01:21:52;;;;;;;21.25;10.98;;;;;;;;;;6093030;23;20020;-86
2023/12/01 01:24:17;;;;;;;24.23;11.75;;;;;;;;;;6069163;23;20532;-86
2023/12/01 01:26:43;;;;;;;19.52;10.77;;;;;;;;;;6068446;23;20014;-85
2023/12/01 01:29:08;;;;;;;21.33;10.13;;;;;;;;;;6068371;23;20045;-85
2023/12/01 01:31:34;;;;;;;20.73;10.93;;;;;;;;;;6068246;23;20523;-86
2023/12/01 01:33:59;;;;;;;20.88;11.10;;;;;;;;;;6068705;23;20018;-85
2023/12/01 01:36:24;;;;;;;21.65;11.52;;;;;;;;;;6067766;23;20026;-85
2023/12/01 01:38:50;;;;;;;18.83;10.38;;;;;;;;;;6115707;23;20073;-86
2023/12/01 01:41:15;;;;;;;20.95;11.02;;;;;;;;;;6082662;23;20009;-85
2023/12/01 01:43:40;;;;;;;20.10;10.45;;;;;;;;;;6092915;23;20074;-86
2023/12/01 01:46:08;;;;;;;20.15;10.77;;;;;;;;;;6067373;23;20449;-85
2023/12/01 01:48:33;;;;;;;;;;;;;;;;;;6069251;23;20440;-87
2023/12/01 01:51:00;;;;;;;20.02;11.15;;;;;;;;;;6068657;23;19919;-86
2023/12/01 01:53:29;;;;;;;25.73;13.27;;;;;;;;;;6068984;23;20013;-86
2023/12/01 01:56:01;;;;;;;25.25;13.40;;;;;;;;;;6067910;23;20396;-84
2023/12/01 01:58:27;;;;;;;26.00;13.27;;;;;;;;;;6085887;23;20055;-85
2023/12/01 02:00:53;;;;;;;29.58;14.45;;;;;;;;;;6092224;23;20027;-85
2023/12/01 02:03:20;;;;;;;28.02;15.07;;;;;;;;;;6068559;23;20010;-86
2023/12/01 02:05:49;;;;;;;27.02;14.90;;;;;;;;;;6091938;23;20014;-85
2023/12/01 02:08:28;;;;;;;27.02;14.77;;;;;;;;;;6069226;23;20025;-86
2023/12/01 02:10:55;;;;;;;31.73;14.88;;;;;;;;;;6067824;23;20025;-86
2023/12/01 02:13:22;;;;;;;28.05;14.40;;;;;;;;;;6092738;23;20040;-86
2023/12/01 02:15:48;;;;;;;25.50;14.02;;;;;;;;;;6068011;23;20041;-85
2023/12/01 02:18:25;;;;;;;30.38;15.27;;;;;;;;;;6063885;23;20408;-85
2023/12/01 02:20:51;;;;;;;29.33;15.57;;;;;;;;;;6037362;23;20037;-86
2023/12/01 02:23:17;;;;;;;28.73;15.53;;;;;;;;;;6040087;23;20062;-86
2023/12/01 02:25:42;;;;;;;29.77;15.93;;;;;;;;;;6038871;23;20077;-85
2023/12/01 02:28:08;;;;;;;32.47;16.23;;;;;;;;;;6039949;23;20018;-86
2023/12/01 02:30:33;;;;;;;28.08;16.05;;;;;;;;;;6039619;23;20014;-86
2023/12/01 02:32:59;;;;;;;29.02;15.02;;;;;;;;;;6039308;23;20077;-86
2023/12/01 02:35:29;;;;;;;27.98;15.70;;;;;;;;;;6039432;23;20022;-86
2023/12/01 02:37:55;;;;;;;29.45;15.13;;;;;;;;;;6040651;23;20453;-85
2023/12/01 02:40:22;;;;;;;30.88;15.45;;;;;;;;;;6087986;23;20049;-85
2023/12/01 02:42:49;;;;;;;29.27;15.90;;;;;;;;;;6064178;23;20495;-86
2023/12/01 02:45:14;;;;;;;27.83;15.98;;;;;;;;;;6038728;23;20220;-86
2023/12/01 02:47:40;;;;;;;29.83;15.43;;;;;;;;;;6038443;23;20042;-86
2023/12/01 02:50:09;;;;;;;30.27;14.95;;;;;;;;;;6039553;23;20022;-86
2023/12/01 02:52:36;;;;;;;30.95;15.25;;;;;;;;;;6039241;23;20034;-86
2023/12/01 02:55:01;;;;;;;31.30;15.43;;;;;;;;;;6039451;23;20029;-85
2023/12/01 02:57:27;;;;;;;29.67;15.07;;;;;;;;;;6062040;23;20014;-85
2023/12/01 02:59:52;;;;;;;27.92;14.05;;;;;;;;;;6063207;23;20022;-86
2023/12/01 03:02:17;;;;;;;25.92;14.00;;;;;;;;;;6061434;23;20599;-86
2023/12/01 03:04:43;;;;;;;28.33;14.52;;;;;;;;;;6039165;23;20014;-85
2023/12/01 03:07:08;;;;;;;27.70;13.77;;;;;;;;;;6037984;23;20337;-85
2023/12/01 03:09:34;;;;;;;25.27;12.75;;;;;;;;;;6039576;23;20015;-85
2023/12/01 03:11:59;;;;;;;25.70;14.25;;;;;;;;;;6062020;23;20026;-86
2023/12/01 03:14:25;;;;;;;29.23;13.57;;;;;;;;;;6063571;23;20014;-85
2023/12/01 03:16:50;;;;;;;26.50;14.90;;;;;;;;;;6062359;23;20011;-86
2023/12/01 03:19:15;;;;;;;23.70;12.20;;;;;;;;;;6080321;23;20025;-86
2023/12/01 03:21:41;;;;;;;25.98;13.05;;;;;;;;;;6067377;23;20010;-85
2023/12/01 03:24:09;;;;;;;25.30;12.93;;;;;;;;;;6068250;23;20120;-86
2023/12/01 03:26:35;;;;;;;23.42;12.50;;;;;;;;;;6067351;23;20010;-86
2023/12/01 03:29:01;;;;;;;25.83;12.88;;;;;;;;;;6091289;23;20024;-86
2023/12/01 03:31:26;;;;;;;25.67;12.90;;;;;;;;;;6083677;23;20013;-85
2023/12/01 03:33:52;;;;;;;26.05;13.43;;;;;;;;;;6066698;23;20061;-85
2023/12/01 03:36:17;;;;;;;24.45;12.57;;;;;;;;;;6054347;23;20024;-85
2023/12/01 03:38:43;;;;;;;23.60;12.75;;;;;;;;;;6092345;23;20037;-85
2023/12/01 03:41:08;;;;;;;21.90;11.70;;;;;;;;;;6065934;23;20088;-85
2023/12/01 03:43:33;;;;;;;24.67;13.10;;;;;;;;;;6091721;23;20017;-85
2023/12/01 03:45:59;;;;;;;25.02;12.82;;;;;;;;;;6091141;23;20407;-84
2023/12/01 03:48:24;;;;;;;25.95;13.60;;;;;;;;;;6091989;23;20018;-85
2023/12/01 03:50:50;;;;;;;28.08;13.18;;;;;;;;;;6067170;23;20018;-85
2023/12/01 03:53:15;;;;;;;29.05;14.15;;;;;;;;;;6091945;23;20018;-85
2023/12/01 03:55:41;;;;;;;23.65;13.35;;;;;;;;;;6090634;23;20329;-85
2023/12/01 03:58:07;;;;;;;26.48;13.70;;;;;;;;;;6067882;23;20096;-84
2023/12/01 04:00:32;;;;;;;27.35;13.38;;;;;;;;;;6066028;23;20020;-85
2023/12/01 04:02:58;;;;;;;25.90;14.27;;;;;;;;;;6067565;23;20456;-85
2023/12/01 04:05:26;;;;;;;24.27;12.43;;;;;;;;;;6068465;23;20018;-85
2023/12/01 04:07:52;;;;;;;28.45;14.00;;;;;;;;;;6068173;23;20496;-85
2023/12/01 04:10:18;;;;;;;26.48;13.38;;;;;;;;;;6066941;23;20014;-85
2023/12/01 04:12:44;;;;;;;24.85;13.52;;;;;;;;;;6087503;23;20076;-85
2023/12/01 04:15:14;;;;;;;25.45;13.77;;;;;;;;;;6067960;23;20304;-85
2023/12/01 04:17:43;;;;;;;28.27;13.25;;;;;;;;;;6109455;23;20077;-85
2023/12/01 04:20:26;;;;;;;26.05;13.15;;;;;;;;;;6092188;23;20025;-85
2023/12/01 04:23:02;;;;;;;25.92;13.00;;;;;;;;;;6092983;23;20018;-85
2023/12/01 04:25:29;;;;;;;25.38;12.85;;;;;;;;;;6065645;23;20010;-86
2023/12/01 04:27:56;;;;;;;25.45;13.15;;;;;;;;;;6068208;23;20022;-86
2023/12/01 04:30:23;;;;;;;23.58;12.20;;;;;;;;;;6069840;23;20149;-87
2023/12/01 04:32:53;;;;;;;27.10;13.25;;;;;;;;;;6092891;23;20018;-86
2023/12/01 04:35:21;;;;;;;23.15;11.88;;;;;;;;;;6069067;23;20475;-86
2023/12/01 04:37:47;;;;;;;24.23;11.73;;;;;;;;;;6068763;23;20344;-85
2023/12/01 04:40:15;;;;;;;20.67;11.25;;;;;;;;;;6045593;23;20025;-86
2023/12/01 04:42:50;;;;;;;21.88;11.05;;;;;;;;;;6068968;23;20033;-85
2023/12/01 04:45:19;;;;;;;23.17;10.68;;;;;;;;;;6069987;23;20064;-86
2023/12/01 04:47:52;;;;;;;17.83;9.77;;;;;;;;;;6093585;23;20022;-86
2023/12/01 04:50:20;;;;;;;19.42;10.57;;;;;;;;;;6069892;23;20022;-85
2023/12/01 04:52:48;;;;;;;18.67;9.50;;;;;;;;;;6068453;23;20076;-85
2023/12/01 04:55:15;;;;;;;19.65;9.98;;;;;;;;;;6069737;23;20034;-86
2023/12/01 04:57:42;;;;;;;17.45;9.18;;;;;;;;;;6064820;23;20014;-85
2023/12/01 05:00:22;;;;;;;16.73;9.05;;;;;;;;;;6069522;23;20081;-86
2023/12/01 05:02:51;;;;;;;16.98;8.25;;;;;;;;;;6069115;23;20043;-86
2023/12/01 05:05:20;;;;;;;17.88;8.90;;;;;;;;;;6093066;23;20034;-87
2023/12/01 05:07:49;;;;;;;16.30;8.60;;;;;;;;;;6055943;23;20037;-86
2023/12/01 05:10:15;;;;;;;18.15;9.18;;;;;;;;;;6070054;23;20018;-78
2023/12/01 05:12:44;;;;;;;13.00;7.72;;;;;;;;;;6067934;23;20468;-78
2023/12/01 05:15:15;;;;;;;15.07;8.05;;;;;;;;;;6068990;23;20491;-84
2023/12/01 05:17:45;;;;;;;15.52;7.90;;;;;;;;;;6069035;23;20018;-83
2023/12/01 05:20:15;;;;;;;14.48;7.60;;;;;;;;;;6068882;23;20026;-84
2023/12/01 05:22:45;;;;;;;14.27;7.70;;;;;;;;;;6069141;23;20014;-84
2023/12/01 05:25:16;;;;;;;13.10;7.35;;;;;;;;;;6093058;23;20013;-83
2023/12/01 05:27:51;;;;;;;15.50;7.70;;;;;;;;;;6069630;23;20029;-83
2023/12/01 05:30:19;;;;;;;15.85;7.53;;;;;;;;;;6068989;23;20025;-84
2023/12/01 05:32:46;;;;;;;13.77;7.20;;;;;;;;;;6068425;23;20045;-84
2023/12/01 05:35:12;;;;;;;14.80;8.02;;;;;;;;;;6068581;23;20384;-83
2023/12/01 05:37:39;;;;;;;13.20;7.25;;;;;;;;;;6067018;23;20018;-83
2023/12/01 05:40:09;;;;;;;16.23;7.25;;;;;;;;;;6118574;23;20025;-82
2023/12/01 05:42:36;;;;;;;15.18;7.82;;;;;;;;;;6091787;23;20491;-83
2023/12/01 05:45:01;;;;;;;13.63;7.70;;;;;;;;;;6069235;23;20022;-83
2023/12/01 05:47:27;;;;;;;13.80;7.43;;;;;;;;;;6067766;23;20097;-82
2023/12/01 05:49:52;;;;;;;16.88;7.60;;;;;;;;;;6069371;23;20507;-83
2023/12/01 05:52:17;;;;;;;15.80;8.43;;;;;;;;;;6091966;23;20036;-83
2023/12/01 05:54:43;;;;;;;14.20;7.53;;;;;;;;;;6068549;23;20010;-83
2023/12/01 05:57:08;;;;;;;14.80;7.07;;;;;;;;;;6067419;23;20034;-85
2023/12/01 05:59:34;;;;;;;14.70;7.90;;;;;;;;;;6068535;23;20014;-82
2023/12/01 06:01:59;;;;;;;15.15;8.07;;;;;;;;;;6067311;23;20022;-81
2023/12/01 06:04:25;;;;;;;15.45;8.35;;;;;;;;;;6068989;23;20018;-81
2023/12/01 06:06:51;;;;;;;14.50;7.85;;;;;;;;;;6092310;23;20017;-81
2023/12/01 06:09:17;;;;;;;13.77;7.60;;;;;;;;;;6092925;23;20009;-82
2023/12/01 06:11:43;;;;;;;16.05;8.65;;;;;;;;;;6068289;23;20471;-82
2023/12/01 06:14:08;;;;;;;13.55;7.72;;;;;;;;;;6092738;23;20105;-83
2023/12/01 06:16:34;;;;;;;14.63;7.40;;;;;;;;;;6067764;23;20391;-82
2023/12/01 06:18:59;;;;;;;14.90;8.63;;;;;;;;;;6068711;23;20030;-81
2023/12/01 06:21:25;;;;;;;16.08;7.55;;;;;;;;;;6067688;23;20014;-82
2023/12/01 06:23:50;;;;;;;17.52;7.72;;;;;;;;;;6067947;23;20456;-82
2023/12/01 06:26:16;;;;;;;16.65;8.10;;;;;;;;;;6067389;23;20033;-82
2023/12/01 06:28:41;;;;;;;14.48;8.15;;;;;;;;;;6068621;23;20069;-82
2023/12/01 06:31:07;;;;;;;17.00;8.50;;;;;;;;;;6067590;23;20014;-82
2023/12/01 06:33:32;;;;;;;14.85;7.95;;;;;;;;;;6068498;23;20064;-82
2023/12/01 06:36:17;;;;;;;15.90;7.78;;;;;;;;;;6067157;23;20028;-80
2023/12/01 06:38:43;;;;;;;14.38;7.97;;;;;;;;;;6000125;23;20015;-83
2023/12/01 06:41:08;;;;;;;16.35;8.38;;;;;;;;;;5976039;23;20091;-80
2023/12/01 06:43:56;;;;;;;16.35;8.50;;;;;;;;;;5953584;23;20019;-81
2023/12/01 06:46:21;;;;;;;17.88;8.60;;;;;;;;;;5943802;24;20355;-81
2023/12/01 06:48:47;;;;;;;20.42;9.32;;;;;;;;;;5921268;24;20091;-81
2023/12/01 06:51:14;;;;;;;16.23;9.30;;;;;;;;;;5896750;24;20375;-79
2023/12/01 06:53:39;;;;;;;22.17;8.73;;;;;;;;;;5945380;24;20025;-80
2023/12/01 06:56:05;;;;;;;15.25;8.35;;;;;;;;;;5897758;24;20104;-81
2023/12/01 06:58:32;;;;;;;16.83;8.65;;;;;;;;;;5944435;24;20020;-82
2023/12/01 07:00:57;;;;;;;17.17;8.43;;;;;;;;;;5943132;24;20024;-82
2023/12/01 07:03:23;;;;;;;15.70;8.88;;;;;;;;;;5923547;24;20467;-82
2023/12/01 07:05:51;;;;;;;16.70;9.40;;;;;;;;;;5920258;24;20096;-82
2023/12/01 07:08:17;;;;;;;16.10;8.82;;;;;;;;;;5921320;24;20021;-82
2023/12/01 07:10:43;;;;;;;17.85;9.38;;;;;;;;;;5919358;24;20344;-81
2023/12/01 07:13:09;;;;;;;18.02;9.95;;;;;;;;;;5920980;24;20363;-83
2023/12/01 07:15:36;;;;;;;19.88;9.10;;;;;;;;;;5947750;24;20102;-84
2023/12/01 07:18:01;;;;;;;;;;;;;;;;;;5965269;23;20028;-84
2023/12/01 07:20:27;;;;;;;18.80;9.00;;;;;;;;;;5942175;23;19936;-84
2023/12/01 07:22:53;;;;;;;17.67;9.32;;;;;;;;;;5993963;23;20032;-84
2023/12/01 07:25:22;;;;;;;18.17;9.27;;;;;;;;;;6067991;23;20462;-84
2023/12/01 07:27:51;;;;;;;17.55;9.32;;;;;;;;;;6091098;23;20025;-84
2023/12/01 07:30:16;;;;;;;15.77;8.85;;;;;;;;;;6067805;23;20028;-84
2023/12/01 07:32:45;;;;;;;19.55;9.30;;;;;;;;;;6117045;23;20092;-84
2023/12/01 07:35:12;;;;;;;19.90;10.00;;;;;;;;;;6068061;23;20814;-84
2023/12/01 07:37:38;;;;;;;16.67;8.97;;;;;;;;;;6053036;23;20021;-84
2023/12/01 07:40:06;;;;;;;17.58;8.88;;;;;;;;;;6068244;23;20289;-84
2023/12/01 07:42:32;;;;;;;18.77;8.80;;;;;;;;;;6092217;23;20017;-84
2023/12/01 07:44:58;;;;;;;16.35;9.43;;;;;;;;;;6068565;23;20096;-82
2023/12/01 07:47:24;;;;;;;17.92;9.27;;;;;;;;;;6091745;23;20021;-84
2023/12/01 07:49:49;;;;;;;18.92;8.75;;;;;;;;;;6069010;23;20017;-83
2023/12/01 07:52:15;;;;;;;18.35;9.23;;;;;;;;;;6090772;23;20022;-82
2023/12/01 07:54:40;;;;;;;20.90;9.48;;;;;;;;;;6068104;23;20355;-82
2023/12/01 07:57:06;;;;;;;18.60;9.27;;;;;;;;;;6067224;23;20022;-80
2023/12/01 07:59:31;;;;;;;17.40;9.30;;;;;;;;;;6092131;23;20022;-81
2023/12/01 08:01:57;;;;;;;19.90;8.95;;;;;;;;;;6090313;23;20017;-82
2023/12/01 08:04:23;;;;;;;17.67;8.95;;;;;;;;;;6070253;23;20085;-82
2023/12/01 08:06:49;;;;;;;19.67;8.95;;;;;;;;;;6092915;23;20025;-83
2023/12/01 08:09:16;;;;;;;19.27;8.05;;;;;;;;;;6070373;23;20037;-83
2023/12/01 08:11:43;;;;;;;16.73;9.30;;;;;;;;;;6092748;23;20028;-83
2023/12/01 08:14:10;;;;;;;19.03;9.53;;;;;;;;;;6094262;23;20022;-82
2023/12/01 08:16:35;;;;;;;18.75;9.50;;;;;;;;;;6069168;23;20123;-83
2023/12/01 08:19:01;;;;;;;18.85;9.38;;;;;;;;;;6094264;23;20113;-85
2023/12/01 08:21:27;;;;;;;19.65;9.60;;;;;;;;;;6093127;23;20037;-83
2023/12/01 08:23:52;;;;;;;17.88;9.45;;;;;;;;;;6070760;23;20097;-82
2023/12/01 08:26:22;;;;;;;16.08;8.52;;;;;;;;;;6092853;23;20467;-81
2023/12/01 08:28:47;;;;;;;18.73;9.13;;;;;;;;;;6070124;23;20014;-84
2023/12/01 08:31:12;;;;;;;18.20;9.15;;;;;;;;;;6069385;23;20014;-82
2023/12/01 08:33:38;;;;;;;18.65;9.50;;;;;;;;;;6069755;23;20018;-81
2023/12/01 08:36:03;;;;;;;18.92;9.43;;;;;;;;;;6068673;23;20026;-82
2023/12/01 08:38:29;;;;;;;18.90;9.82;;;;;;;;;;6119491;23;20077;-83
2023/12/01 08:40:54;;;;;;;17.25;9.20;;;;;;;;;;6093302;23;20038;-83
2023/12/01 08:43:20;;;;;;;19.63;9.27;;;;;;;;;;6090261;23;20782;-83
2023/12/01 08:45:45;;;;;;;19.35;8.90;;;;;;;;;;6054968;23;20397;-82
2023/12/01 08:48:10;;;;;;;17.48;9.50;;;;;;;;;;6066651;23;20077;-82
2023/12/01 08:50:36;;;;;;;19.08;9.82;;;;;;;;;;6067706;23;20033;-83
2023/12/01 08:53:01;;;;;;;19.77;9.57;;;;;;;;;;6091567;23;20018;-83
2023/12/01 08:55:26;;;;;;;18.70;9.68;;;;;;;;;;6078541;23;20552;-84
2023/12/01 08:57:52;;;;;;;18.92;9.35;;;;;;;;;;6093338;23;20341;-83
2023/12/01 09:00:20;;;;;;;18.45;9.13;;;;;;;;;;6069210;23;20014;-83
2023/12/01 09:02:48;;;;;;;18.52;9.93;;;;;;;;;;6069257;23;20057;-82
2023/12/01 09:05:13;;;;;;;;;;;;;;;;;;6068049;23;20025;-84
2023/12/01 09:07:38;;;;;;;15.93;8.95;;;;;;;;;;6067948;23;19912;-82
2023/12/01 09:10:04;;;;;;;17.42;9.38;;;;;;;;;;6068875;23;20337;-83
2023/12/01 09:12:30;;;;;;;18.85;9.50;;;;;;;;;;6068082;23;20010;-82
2023/12/01 09:15:00;;;;;;;15.40;9.07;;;;;;;;;;6069520;23;20014;-82
2023/12/01 09:17:26;;;;;;;18.73;10.15;;;;;;;;;;6091895;23;20025;-82
2023/12/01 09:19:51;;;;;;;17.88;8.85;;;;;;;;;;6114753;23;20455;-83
2023/12/01 09:22:17;;;;;;;18.20;9.45;;;;;;;;;;6067811;23;20010;-82
2023/12/01 09:24:42;;;;;;;17.20;9.57;;;;;;;;;;6057463;23;20575;-83
2023/12/01 09:27:08;;;;;;;17.50;9.57;;;;;;;;;;6092246;23;20037;-83
2023/12/01 09:29:33;;;;;;;17.80;9.80;;;;;;;;;;6092900;23;20010;-82
2023/12/01 09:31:58;;;;;;;17.63;9.05;;;;;;;;;;6067809;23;20024;-81
2023/12/01 09:34:24;;;;;;;16.65;8.70;;;;;;;;;;6074577;23;20018;-82
2023/12/01 09:36:50;;;;;;;15.45;8.30;;;;;;;;;;6091721;23;20018;-81
2023/12/01 09:39:16;;;;;;;15.52;8.15;;;;;;;;;;6068890;23;20447;-82
2023/12/01 09:41:41;;;;;;;16.70;8.32;;;;;;;;;;6091964;23;20109;-82
2023/12/01 09:44:07;;;;;;;15.32;8.73;;;;;;;;;;6068803;23;20067;-83
2023/12/01 09:46:35;;;;;;;17.40;9.07;;;;;;;;;;6067819;23;20022;-82
2023/12/01 09:49:04;;;;;;;16.73;8.82;;;;;;;;;;6069698;23;20347;-82
2023/12/01 09:51:34;;;;;;;20.30;9.43;;;;;;;;;;6067442;23;20069;-81
2023/12/01 09:53:59;;;;;;;16.45;9.13;;;;;;;;;;6069071;23;20021;-82
2023/12/01 09:56:25;;;;;;;17.05;8.90;;;;;;;;;;6092218;23;20034;-82
2023/12/01 09:58:51;;;;;;;17.00;9.85;;;;;;;;;;6068513;23;20014;-82
2023/12/01 10:01:17;;;;;;;18.70;8.90;;;;;;;;;;6107098;23;20032;-82
2023/12/01 10:03:43;;;;;;;18.77;9.85;;;;;;;;;;6113312;23;20014;-82
2023/12/01 10:06:08;;;;;;;21.00;10.15;;;;;;;;;;6091353;23;20093;-82
2023/12/01 10:08:34;;;;;;;18.05;9.43;;;;;;;;;;6092969;23;20014;-82
2023/12/01 10:11:00;;;;;;;18.52;10.25;;;;;;;;;;6067268;23;20013;-82
2023/12/01 10:13:31;;;;;;;19.88;10.23;;;;;;;;;;6093262;23;20040;-82
2023/12/01 10:15:58;;;;;;;15.85;9.52;;;;;;;;;;6091455;23;20461;-82
2023/12/01 10:18:23;;;;;;;16.33;9.13;;;;;;;;;;6069238;23;20084;-82
2023/12/01 10:20:57;;;;;;;21.67;10.55;;;;;;;;;;6086840;23;20388;-83
2023/12/01 10:23:23;;;;;;;22.60;10.13;;;;;;;;;;6092864;23;20018;-83
2023/12/01 10:25:49;;;;;;;19.90;10.25;;;;;;;;;;6067380;23;20017;-82
2023/12/01 10:28:18;;;;;;;22.42;9.57;;;;;;;;;;6068554;23;20014;-83
2023/12/01 10:31:10;;;;;;;21.00;10.02;;;;;;;;;;6091388;23;20084;-83
2023/12/01 10:33:36;;;;;;;20.67;9.60;;;;;;;;;;6061997;23;20504;-83
2023/12/01 10:36:05;;;;;;;20.65;10.88;;;;;;;;;;6090962;23;20121;-82
2023/12/01 10:38:33;;;;;;;19.13;10.15;;;;;;;;;;6091899;23;20022;-82
2023/12/01 10:40:59;;;;;;;19.02;9.80;;;;;;;;;;6091131;23;20527;-82
2023/12/01 10:43:26;;;;;;;18.63;10.13;;;;;;;;;;6068863;23;20452;-83
2023/12/01 10:45:52;;;;;;;19.67;10.50;;;;;;;;;;6067646;23;20761;-82
2023/12/01 10:48:19;;;;;;;19.23;10.02;;;;;;;;;;6068004;23;20308;-83
2023/12/01 10:50:48;;;;;;;18.42;10.20;;;;;;;;;;6065900;23;20451;-83
2023/12/01 10:53:15;;;;;;;18.10;10.13;;;;;;;;;;6067502;23;20109;-82
2023/12/01 10:55:50;;;;;;;18.97;10.63;;;;;;;;;;6065159;23;20034;-83
2023/12/01 10:58:25;;;;;;;21.60;11.10;;;;;;;;;;6066971;23;20018;-82
2023/12/01 11:00:52;;;;;;;19.63;10.40;;;;;;;;;;6067458;23;20413;-82
2023/12/01 11:03:22;;;;;;;19.63;10.48;;;;;;;;;;6067677;23;20017;-83
2023/12/01 11:05:51;;;;;;;19.58;10.98;;;;;;;;;;6075634;23;20017;-83
2023/12/01 11:08:20;;;;;;;22.08;11.38;;;;;;;;;;6084220;23;20026;-83
2023/12/01 11:10:48;;;;;;;19.73;11.25;;;;;;;;;;6086899;23;20010;-82
2023/12/01 11:13:43;;;;;;;16.45;9.82;;;;;;;;;;6094545;23;20032;-82
2023/12/01 11:16:09;;;;;;;17.50;9.48;;;;;;;;;;6099210;23;20725;-83
2023/12/01 11:18:38;;;;;;;15.57;8.73;;;;;;;;;;6063336;23;20077;-83
2023/12/01 11:21:05;;;;;;;17.20;9.63;;;;;;;;;;6091424;23;20019;-82
2023/12/01 11:23:35;;;;;;;18.98;10.35;;;;;;;;;;6047638;23;20015;-83
2023/12/01 11:26:11;;;;;;;14.88;8.45;;;;;;;;;;6074521;23;20026;-82
2023/12/01 11:33:57;;;;;;;15.20;8.02;;;;;;;;;;6109890;23;20117;-83
2023/12/01 11:36:27;;;;;;;15.20;8.30;;;;;;;;;;6076588;23;20356;-83
2023/12/01 11:39:09;;;;;;;12.88;7.65;;;;;;;;;;6092134;23;20401;-83
2023/12/01 11:41:38;;;;;;;14.85;8.52;;;;;;;;;;6090398;23;20482;-84
2023/12/01 11:44:07;;;;;;;16.90;7.72;;;;;;;;;;6067450;23;20073;-82
2023/12/01 11:46:38;;;;;;;14.52;7.53;;;;;;;;;;6090965;23;20360;-82
2023/12/01 11:49:04;;;;;;;14.10;8.07;;;;;;;;;;6091758;23;20388;-82
2023/12/01 11:51:33;;;;;;;13.02;7.68;;;;;;;;;;6090788;23;20022;-82
2023/12/01 11:54:00;;;;;;;10.93;6.95;;;;;;;;;;6067962;23;20021;-82
2023/12/01 11:56:26;;;;;;;12.07;6.78;;;;;;;;;;6067916;23;20010;-81
2023/12/01 11:58:52;;;;;;;11.68;6.80;;;;;;;;;;6067921;23;20085;-82
2023/12/01 12:01:18;;;;;;;11.98;7.30;;;;;;;;;;6066026;23;20016;-82
2023/12/01 12:03:44;;;;;;;10.63;6.63;;;;;;;;;;6068187;23;20029;-82
2023/12/01 12:06:11;;;;;;;12.23;7.38;;;;;;;;;;6066947;23;20018;-83
2023/12/01 12:08:37;;;;;;;13.70;7.63;;;;;;;;;;6068081;23;20080;-82
2023/12/01 12:11:11;;;;;;;11.88;6.65;;;;;;;;;;6091153;23;20009;-82
2023/12/01 12:13:36;;;;;;;11.02;6.55;;;;;;;;;;6053061;23;20086;-82
2023/12/01 12:16:02;;;;;;;12.10;6.82;;;;;;;;;;6090394;23;20025;-82
2023/12/01 12:18:29;;;;;;;12.38;6.82;;;;;;;;;;6067699;23;20516;-82
2023/12/01 12:21:03;;;;;;;10.35;6.25;;;;;;;;;;6091837;23;20460;-82
2023/12/01 12:23:32;;;;;;;10.82;6.88;;;;;;;;;;6091519;23;20018;-82
2023/12/01 12:26:14;;;;;;;11.40;6.60;;;;;;;;;;6090252;23;20018;-82
2023/12/01 12:28:41;;;;;;;11.15;6.78;;;;;;;;;;6091788;23;20018;-83
2023/12/01 12:31:06;;;;;;;12.17;6.83;;;;;;;;;;6066800;23;20014;-82
2023/12/01 12:33:32;;;;;;;12.77;7.35;;;;;;;;;;6068008;23;20395;-82
2023/12/01 12:36:01;;;;;;;12.35;7.20;;;;;;;;;;6066876;23;20026;-81
2023/12/01 12:38:26;;;;;;;14.27;7.28;;;;;;;;;;6093890;23;20575;-82
2023/12/01 12:40:52;;;;;;;18.17;8.40;;;;;;;;;;6090863;23;20080;-82
2023/12/01 12:43:20;;;;;;;15.15;8.18;;;;;;;;;;6067708;23;20352;-83
2023/12/01 12:45:48;;;;;;;16.33;8.70;;;;;;;;;;6090838;23;20385;-82
2023/12/01 12:48:14;;;;;;;16.60;8.60;;;;;;;;;;6068162;23;20405;-82
2023/12/01 12:50:43;;;;;;;18.75;9.13;;;;;;;;;;6068263;23;20082;-82
2023/12/01 12:53:08;;;;;;;17.63;9.18;;;;;;;;;;6070453;23;20018;-82
2023/12/01 12:55:34;;;;;;;15.70;8.75;;;;;;;;;;6068711;23;20014;-82
2023/12/01 12:58:19;;;;;;;19.42;10.27;;;;;;;;;;6069983;23;20022;-81
2023/12/01 13:00:45;;;;;;;22.17;10.38;;;;;;;;;;6026607;23;20543;-82
2023/12/01 13:03:10;;;;;;;21.88;10.98;;;;;;;;;;6006023;23;20051;-82
2023/12/01 13:05:35;;;;;;;24.55;11.43;;;;;;;;;;6005714;23;20021;-82
2023/12/01 13:08:01;;;;;;;21.60;10.98;;;;;;;;;;6031020;23;20080;-81
2023/12/01 13:10:26;;;;;;;26.33;11.73;;;;;;;;;;6031141;23;20047;-82
2023/12/01 13:12:51;;;;;;;21.48;11.13;;;;;;;;;;5982284;23;20023;-81
2023/12/01 13:15:17;;;;;;;23.60;11.70;;;;;;;;;;6006477;23;20102;-82
2023/12/01 13:17:42;;;;;;;22.70;10.75;;;;;;;;;;6005704;23;20402;-82
2023/12/01 13:20:08;;;;;;;23.90;10.38;;;;;;;;;;6006178;23;20450;-82
2023/12/01 13:22:33;;;;;;;25.27;11.80;;;;;;;;;;5981483;23;20095;-82
2023/12/01 13:24:59;;;;;;;22.42;10.48;;;;;;;;;;5982743;23;20031;-82
2023/12/01 13:27:24;;;;;;;24.10;11.07;;;;;;;;;;6029758;23;20043;-82
2023/12/01 13:29:49;;;;;;;26.58;12.20;;;;;;;;;;6006421;23;20102;-81
2023/12/01 13:32:15;;;;;;;25.50;12.13;;;;;;;;;;6028917;23;20491;-81
2023/12/01 13:34:40;;;;;;;27.40;12.18;;;;;;;;;;6030324;23;20020;-82
2023/12/01 13:37:07;;;;;;;25.10;12.43;;;;;;;;;;6025603;23;20044;-81
2023/12/01 13:39:33;;;;;;;26.27;12.38;;;;;;;;;;6054466;23;20013;-81
2023/12/01 13:41:59;;;;;;;24.42;11.73;;;;;;;;;;6065121;23;20021;-81
2023/12/01 13:44:24;;;;;;;26.02;12.02;;;;;;;;;;6094185;23;20085;-81
2023/12/01 13:46:50;;;;;;;29.27;12.82;;;;;;;;;;6069016;23;20638;-81
2023/12/01 13:49:17;;;;;;;25.70;12.25;;;;;;;;;;6109262;23;20093;-81
2023/12/01 13:51:44;;;;;;;27.98;13.05;;;;;;;;;;6064844;23;20453;-81
2023/12/01 13:54:10;;;;;;;25.35;12.23;;;;;;;;;;6093032;23;20040;-81
2023/12/01 13:56:35;;;;;;;27.52;12.10;;;;;;;;;;6116682;23;20092;-81
2023/12/01 13:59:01;;;;;;;29.08;13.45;;;;;;;;;;6092837;23;20045;-81
2023/12/01 14:01:26;;;;;;;26.75;12.60;;;;;;;;;;6068979;23;20018;-81
2023/12/01 14:03:52;;;;;;;27.27;12.10;;;;;;;;;;6117208;23;20010;-80
2023/12/01 14:06:17;;;;;;;29.45;12.93;;;;;;;;;;6116326;23;20018;-81
2023/12/01 14:08:43;;;;;;;29.40;12.57;;;;;;;;;;6092768;23;20010;-81
2023/12/01 14:11:08;;;;;;;26.70;11.95;;;;;;;;;;6116544;23;20021;-82
2023/12/01 14:13:33;;;;;;;32.22;14.30;;;;;;;;;;6092775;23;20076;-81
2023/12/01 14:15:59;;;;;;;30.42;13.85;;;;;;;;;;6067619;23;20022;-81
2023/12/01 14:18:24;;;;;;;29.65;12.80;;;;;;;;;;6069615;23;20050;-81
2023/12/01 14:20:50;;;;;;;29.85;13.52;;;;;;;;;;6067575;23;20707;-81
2023/12/01 14:23:15;;;;;;;28.00;12.75;;;;;;;;;;6068285;23;20346;-82
2023/12/01 14:25:40;;;;;;;27.70;12.85;;;;;;;;;;6068130;23;20081;-80
2023/12/01 14:28:06;;;;;;;29.65;13.35;;;;;;;;;;6068553;23;20022;-80